sensor_id;sensor_type;location;lat;lon;timestamp;pressure;altitude;pressure_sealevel;temperature;humidity
55460;BME280;41326;45.302;-122.946;2024-03-02T00:01:04;99193.20;;;18.11;54.67
55460;BME280;41326;45.302;-122.946;2024-03-02T00:03:34;99183.03;;;18.06;54.80
55460;BME280;41326;45.302;-122.946;2024-03-02T00:06:04;99178.48;;;18.06;54.80
55460;BME280;41326;45.302;-122.946;2024-03-02T00:08:34;99169.41;;;18.07;54.74
55460;BME280;41326;45.302;-122.946;2024-03-02T00:11:04;99161.55;;;18.03;54.81
55460;BME280;41326;45.302;-122.946;2024-03-02T00:13:34;99151.02;;;17.97;54.99
55460;BME280;41326;45.302;-122.946;2024-03-02T00:16:05;99137.65;;;17.94;55.06
55460;BME280;41326;45.302;-122.946;2024-03-02T00:18:35;99130.19;;;17.91;55.13
55460;BME280;41326;45.302;-122.946;2024-03-02T00:21:06;99123.67;;;17.87;55.19
55460;BME280;41326;45.302;-122.946;2024-03-02T00:23:35;99115.53;;;17.87;55.23
55460;BME280;41326;45.302;-122.946;2024-03-02T00:26:05;99102.38;;;17.87;55.16
55460;BME280;41326;45.302;-122.946;2024-03-02T00:28:35;99088.36;;;17.87;55.15
55460;BME280;41326;45.302;-122.946;2024-03-02T00:31:06;99072.76;;;17.85;55.24
55460;BME280;41326;45.302;-122.946;2024-03-02T00:33:36;99061.11;;;17.83;55.31
55460;BME280;41326;45.302;-122.946;2024-03-02T00:36:06;99050.88;;;17.85;55.32
55460;BME280;41326;45.302;-122.946;2024-03-02T00:38:42;99045.65;;;17.90;55.26
55460;BME280;41326;45.302;-122.946;2024-03-02T00:41:06;99052.75;;;18.05;55.06
55460;BME280;41326;45.302;-122.946;2024-03-02T00:43:41;99049.49;;;18.23;54.73
55460;BME280;41326;45.302;-122.946;2024-03-02T00:46:06;99043.52;;;18.45;54.27
55460;BME280;41326;45.302;-122.946;2024-03-02T00:48:36;99032.99;;;18.58;53.88
55460;BME280;41326;45.302;-122.946;2024-03-02T00:51:06;99018.09;;;18.67;53.54
55460;BME280;41326;45.302;-122.946;2024-03-02T00:53:36;98996.77;;;18.70;53.41
55460;BME280;41326;45.302;-122.946;2024-03-02T00:56:10;98977.93;;;18.73;53.45
55460;BME280;41326;45.302;-122.946;2024-03-02T00:58:36;98966.51;;;18.79;53.47
55460;BME280;41326;45.302;-122.946;2024-03-02T01:01:06;98954.50;;;18.91;53.28
55460;BME280;41326;45.302;-122.946;2024-03-02T01:03:36;98947.68;;;19.06;53.00
55460;BME280;41326;45.302;-122.946;2024-03-02T01:06:06;98939.88;;;19.22;52.74
55460;BME280;41326;45.302;-122.946;2024-03-02T01:08:36;98929.50;;;19.34;52.52
55460;BME280;41326;45.302;-122.946;2024-03-02T01:11:06;98920.93;;;19.38;52.24
55460;BME280;41326;45.302;-122.946;2024-03-02T01:13:36;98919.76;;;19.35;52.31
55460;BME280;41326;45.302;-122.946;2024-03-02T01:16:07;98913.18;;;19.27;52.56
55460;BME280;41326;45.302;-122.946;2024-03-02T01:18:36;98908.23;;;19.26;52.70
55460;BME280;41326;45.302;-122.946;2024-03-02T01:21:06;98904.23;;;19.32;52.71
55460;BME280;41326;45.302;-122.946;2024-03-02T01:23:36;98894.81;;;19.42;52.56
55460;BME280;41326;45.302;-122.946;2024-03-02T01:26:07;98889.27;;;19.59;52.18
55460;BME280;41326;45.302;-122.946;2024-03-02T01:28:37;98883.12;;;19.66;51.83
55460;BME280;41326;45.302;-122.946;2024-03-02T01:31:07;98879.74;;;19.63;52.00
55460;BME280;41326;45.302;-122.946;2024-03-02T01:33:37;98876.72;;;19.53;52.31
55460;BME280;41326;45.302;-122.946;2024-03-02T01:36:07;98872.41;;;19.45;52.56
55460;BME280;41326;45.302;-122.946;2024-03-02T01:38:37;98868.93;;;19.43;52.77
55460;BME280;41326;45.302;-122.946;2024-03-02T01:41:07;98856.05;;;19.45;52.92
55460;BME280;41326;45.302;-122.946;2024-03-02T01:43:37;98846.97;;;19.57;52.84
55460;BME280;41326;45.302;-122.946;2024-03-02T01:46:07;98841.56;;;19.68;52.79
55460;BME280;41326;45.302;-122.946;2024-03-02T01:48:38;98844.47;;;19.70;53.09
55460;BME280;41326;45.302;-122.946;2024-03-02T01:51:07;98823.14;;;19.70;53.31
55460;BME280;41326;45.302;-122.946;2024-03-02T01:53:38;98818.31;;;19.69;53.50
55460;BME280;41326;45.302;-122.946;2024-03-02T01:56:07;98813.76;;;19.62;53.50
55460;BME280;41326;45.302;-122.946;2024-03-02T01:58:38;98801.13;;;19.52;53.60
55460;BME280;41326;45.302;-122.946;2024-03-02T02:01:08;98792.00;;;19.43;53.74
55460;BME280;41326;45.302;-122.946;2024-03-02T02:03:38;98796.40;;;19.40;53.83
55460;BME280;41326;45.302;-122.946;2024-03-02T02:06:09;98789.79;;;19.39;53.83
55460;BME280;41326;45.302;-122.946;2024-03-02T02:08:38;98783.32;;;19.35;53.81
55460;BME280;41326;45.302;-122.946;2024-03-02T02:11:08;98768.23;;;19.29;54.06
55460;BME280;41326;45.302;-122.946;2024-03-02T02:13:38;98767.02;;;19.26;54.49
55460;BME280;41326;45.302;-122.946;2024-03-02T02:16:09;98770.74;;;19.27;55.49
55460;BME280;41326;45.302;-122.946;2024-03-02T02:18:38;98764.58;;;19.26;56.05
55460;BME280;41326;45.302;-122.946;2024-03-02T02:21:08;98754.74;;;19.27;56.22
55460;BME280;41326;45.302;-122.946;2024-03-02T02:23:38;98746.04;;;19.30;55.88
55460;BME280;41326;45.302;-122.946;2024-03-02T02:26:08;98753.11;;;19.37;55.27
55460;BME280;41326;45.302;-122.946;2024-03-02T02:28:38;98750.50;;;19.46;55.04
55460;BME280;41326;45.302;-122.946;2024-03-02T02:31:09;98757.57;;;19.60;54.81
55460;BME280;41326;45.302;-122.946;2024-03-02T02:33:40;98758.61;;;19.65;54.35
55460;BME280;41326;45.302;-122.946;2024-03-02T02:36:09;98757.30;;;19.66;54.35
55460;BME280;41326;45.302;-122.946;2024-03-02T02:38:42;98753.37;;;19.64;54.79
55460;BME280;41326;45.302;-122.946;2024-03-02T02:41:09;98757.26;;;19.61;54.91
55460;BME280;41326;45.302;-122.946;2024-03-02T02:43:39;98767.88;;;19.61;55.04
55460;BME280;41326;45.302;-122.946;2024-03-02T02:46:09;98766.96;;;19.61;54.71
55460;BME280;41326;45.302;-122.946;2024-03-02T02:48:40;98762.71;;;19.57;54.81
55460;BME280;41326;45.302;-122.946;2024-03-02T02:51:10;98757.28;;;19.54;54.19
55460;BME280;41326;45.302;-122.946;2024-03-02T02:53:40;98755.94;;;19.48;53.83
55460;BME280;41326;45.302;-122.946;2024-03-02T02:56:10;98745.99;;;19.42;54.10
55460;BME280;41326;45.302;-122.946;2024-03-02T02:58:41;98741.91;;;19.38;54.45
55460;BME280;41326;45.302;-122.946;2024-03-02T03:01:10;98736.82;;;19.33;54.64
55460;BME280;41326;45.302;-122.946;2024-03-02T03:03:40;98732.63;;;19.27;54.77
55460;BME280;41326;45.302;-122.946;2024-03-02T03:06:10;98736.93;;;19.21;54.68
55460;BME280;41326;45.302;-122.946;2024-03-02T03:08:40;98728.84;;;19.14;54.84
55460;BME280;41326;45.302;-122.946;2024-03-02T03:11:10;98717.21;;;19.11;55.06
55460;BME280;41326;45.302;-122.946;2024-03-02T03:13:40;98699.48;;;19.08;55.21
55460;BME280;41326;45.302;-122.946;2024-03-02T03:16:11;98671.56;;;19.07;55.09
55460;BME280;41326;45.302;-122.946;2024-03-02T03:18:41;98670.07;;;19.10;55.06
55460;BME280;41326;45.302;-122.946;2024-03-02T03:21:11;98671.63;;;19.21;54.89
55460;BME280;41326;45.302;-122.946;2024-03-02T03:23:42;98664.09;;;19.36;54.45
55460;BME280;41326;45.302;-122.946;2024-03-02T03:26:12;98665.33;;;19.45;54.05
55460;BME280;41326;45.302;-122.946;2024-03-02T03:28:42;98670.19;;;19.47;53.88
55460;BME280;41326;45.302;-122.946;2024-03-02T03:31:12;98667.08;;;19.45;53.96
55460;BME280;41326;45.302;-122.946;2024-03-02T03:33:42;98658.43;;;19.43;54.03
55460;BME280;41326;45.302;-122.946;2024-03-02T03:36:12;98654.94;;;19.39;54.12
55460;BME280;41326;45.302;-122.946;2024-03-02T03:38:42;98653.27;;;19.32;54.29
55460;BME280;41326;45.302;-122.946;2024-03-02T03:41:12;98655.04;;;19.27;54.46
55460;BME280;41326;45.302;-122.946;2024-03-02T03:43:42;98655.15;;;19.25;54.55
55460;BME280;41326;45.302;-122.946;2024-03-02T03:46:13;98651.76;;;19.22;54.48
55460;BME280;41326;45.302;-122.946;2024-03-02T03:48:44;98654.29;;;19.15;54.56
55460;BME280;41326;45.302;-122.946;2024-03-02T03:51:13;98646.59;;;19.13;54.73
55460;BME280;41326;45.302;-122.946;2024-03-02T03:53:43;98643.80;;;19.13;54.74
55460;BME280;41326;45.302;-122.946;2024-03-02T03:56:13;98638.26;;;19.11;54.82
55460;BME280;41326;45.302;-122.946;2024-03-02T03:58:44;98637.15;;;19.12;54.66
55460;BME280;41326;45.302;-122.946;2024-03-02T04:01:14;98626.06;;;19.17;54.63
55460;BME280;41326;45.302;-122.946;2024-03-02T04:03:44;98630.65;;;19.29;54.40
55460;BME280;41326;45.302;-122.946;2024-03-02T04:06:14;98633.91;;;19.40;54.05
55460;BME280;41326;45.302;-122.946;2024-03-02T04:08:44;98632.37;;;19.42;53.90
55460;BME280;41326;45.302;-122.946;2024-03-02T04:11:14;98637.77;;;19.38;54.10
55460;BME280;41326;45.302;-122.946;2024-03-02T04:13:44;98636.86;;;19.35;54.25
55460;BME280;41326;45.302;-122.946;2024-03-02T04:16:14;98641.91;;;19.33;54.34
55460;BME280;41326;45.302;-122.946;2024-03-02T04:18:44;98639.49;;;19.26;54.53
55460;BME280;41326;45.302;-122.946;2024-03-02T04:21:14;98643.39;;;19.23;54.59
55460;BME280;41326;45.302;-122.946;2024-03-02T04:23:44;98643.82;;;19.19;54.73
55460;BME280;41326;45.302;-122.946;2024-03-02T04:26:14;98646.85;;;19.19;54.63
55460;BME280;41326;45.302;-122.946;2024-03-02T04:28:44;98645.81;;;19.15;54.66
55460;BME280;41326;45.302;-122.946;2024-03-02T04:31:15;98644.55;;;19.12;54.85
55460;BME280;41326;45.302;-122.946;2024-03-02T04:33:45;98638.35;;;19.11;54.91
55460;BME280;41326;45.302;-122.946;2024-03-02T04:36:15;98636.48;;;19.09;55.00
55460;BME280;41326;45.302;-122.946;2024-03-02T04:38:45;98646.72;;;19.06;55.11
55460;BME280;41326;45.302;-122.946;2024-03-02T04:41:15;98651.26;;;19.07;54.94
55460;BME280;41326;45.302;-122.946;2024-03-02T04:43:45;98646.88;;;19.11;54.85
55460;BME280;41326;45.302;-122.946;2024-03-02T04:46:16;98642.88;;;19.24;54.55
55460;BME280;41326;45.302;-122.946;2024-03-02T04:48:46;98638.59;;;19.34;54.19
55460;BME280;41326;45.302;-122.946;2024-03-02T04:51:16;98629.89;;;19.39;54.08
55460;BME280;41326;45.302;-122.946;2024-03-02T04:53:46;98635.37;;;19.41;54.04
55460;BME280;41326;45.302;-122.946;2024-03-02T04:56:16;98640.86;;;19.41;53.99
55460;BME280;41326;45.302;-122.946;2024-03-02T04:58:46;98642.71;;;19.36;54.15
55460;BME280;41326;45.302;-122.946;2024-03-02T05:01:16;98644.96;;;19.32;54.21
55460;BME280;41326;45.302;-122.946;2024-03-02T05:03:46;98646.98;;;19.28;54.32
55460;BME280;41326;45.302;-122.946;2024-03-02T05:06:16;98648.60;;;19.24;54.40
55460;BME280;41326;45.302;-122.946;2024-03-02T05:08:46;98646.70;;;19.20;54.48
55460;BME280;41326;45.302;-122.946;2024-03-02T05:11:16;98645.94;;;19.17;54.62
55460;BME280;41326;45.302;-122.946;2024-03-02T05:13:46;98645.71;;;19.12;54.77
55460;BME280;41326;45.302;-122.946;2024-03-02T05:16:16;98648.12;;;19.09;54.86
55460;BME280;41326;45.302;-122.946;2024-03-02T05:18:46;98648.57;;;19.03;55.06
55460;BME280;41326;45.302;-122.946;2024-03-02T05:21:17;98655.57;;;19.00;55.17
55460;BME280;41326;45.302;-122.946;2024-03-02T05:23:47;98660.18;;;18.95;55.23
55460;BME280;41326;45.302;-122.946;2024-03-02T05:26:17;98664.84;;;18.93;55.20
55460;BME280;41326;45.302;-122.946;2024-03-02T05:28:47;98665.79;;;18.92;55.16
55460;BME280;41326;45.302;-122.946;2024-03-02T05:31:17;98663.05;;;18.86;55.33
55460;BME280;41326;45.302;-122.946;2024-03-02T05:33:47;98663.94;;;18.85;55.40
55460;BME280;41326;45.302;-122.946;2024-03-02T05:36:18;98671.73;;;18.81;55.50
55460;BME280;41326;45.302;-122.946;2024-03-02T05:38:48;98678.18;;;18.76;55.62
55460;BME280;41326;45.302;-122.946;2024-03-02T05:41:24;98679.46;;;18.72;55.71
55460;BME280;41326;45.302;-122.946;2024-03-02T05:43:55;98683.32;;;18.69;55.77
55460;BME280;41326;45.302;-122.946;2024-03-02T05:46:25;98673.06;;;18.69;55.70
55460;BME280;41326;45.302;-122.946;2024-03-02T05:48:55;98670.09;;;18.66;55.73
55460;BME280;41326;45.302;-122.946;2024-03-02T05:51:25;98668.87;;;18.63;55.79
55460;BME280;41326;45.302;-122.946;2024-03-02T05:53:56;98670.25;;;18.65;55.74
55460;BME280;41326;45.302;-122.946;2024-03-02T05:56:26;98677.31;;;18.64;55.77
55460;BME280;41326;45.302;-122.946;2024-03-02T05:58:56;98677.05;;;18.61;55.85
55460;BME280;41326;45.302;-122.946;2024-03-02T06:01:27;98686.22;;;18.57;55.95
55460;BME280;41326;45.302;-122.946;2024-03-02T06:03:57;98693.06;;;18.54;55.96
55460;BME280;41326;45.302;-122.946;2024-03-02T06:06:27;98691.66;;;18.54;55.94
55460;BME280;41326;45.302;-122.946;2024-03-02T06:08:57;98694.37;;;18.54;55.96
55460;BME280;41326;45.302;-122.946;2024-03-02T06:11:27;98694.74;;;18.53;56.00
55460;BME280;41326;45.302;-122.946;2024-03-02T06:13:58;98695.01;;;18.50;56.07
55460;BME280;41326;45.302;-122.946;2024-03-02T06:16:28;98703.53;;;18.49;56.10
55460;BME280;41326;45.302;-122.946;2024-03-02T06:18:58;98709.54;;;18.45;56.24
55460;BME280;41326;45.302;-122.946;2024-03-02T06:21:29;98713.00;;;18.41;56.36
55460;BME280;41326;45.302;-122.946;2024-03-02T06:23:59;98709.72;;;18.40;56.40
55460;BME280;41326;45.302;-122.946;2024-03-02T06:26:29;98703.28;;;18.40;56.43
55460;BME280;41326;45.302;-122.946;2024-03-02T06:29:00;98699.93;;;18.40;56.49
55460;BME280;41326;45.302;-122.946;2024-03-02T06:31:30;98701.83;;;18.37;56.63
55460;BME280;41326;45.302;-122.946;2024-03-02T06:34:00;98703.04;;;18.35;56.70
55460;BME280;41326;45.302;-122.946;2024-03-02T06:36:30;98699.07;;;18.34;56.70
55460;BME280;41326;45.302;-122.946;2024-03-02T06:39:00;98687.36;;;18.31;56.75
55460;BME280;41326;45.302;-122.946;2024-03-02T06:41:30;98677.38;;;18.28;56.83
55460;BME280;41326;45.302;-122.946;2024-03-02T06:44:00;98666.39;;;18.27;56.80
55460;BME280;41326;45.302;-122.946;2024-03-02T06:46:30;98657.24;;;18.28;56.69
55460;BME280;41326;45.302;-122.946;2024-03-02T06:49:01;98655.97;;;18.26;56.70
55460;BME280;41326;45.302;-122.946;2024-03-02T06:51:31;98649.52;;;18.26;56.72
55460;BME280;41326;45.302;-122.946;2024-03-02T06:54:01;98647.86;;;18.27;56.66
55460;BME280;41326;45.302;-122.946;2024-03-02T06:56:32;98649.04;;;18.26;56.63
55460;BME280;41326;45.302;-122.946;2024-03-02T06:59:01;98652.01;;;18.22;56.70
55460;BME280;41326;45.302;-122.946;2024-03-02T07:01:32;98657.93;;;18.20;56.75
55460;BME280;41326;45.302;-122.946;2024-03-02T07:04:02;98667.36;;;18.17;56.73
55460;BME280;41326;45.302;-122.946;2024-03-02T07:06:32;98671.37;;;18.15;56.67
55460;BME280;41326;45.302;-122.946;2024-03-02T07:09:03;98679.78;;;18.12;56.76
55460;BME280;41326;45.302;-122.946;2024-03-02T07:11:33;98681.38;;;18.10;56.78
55460;BME280;41326;45.302;-122.946;2024-03-02T07:14:04;98687.55;;;18.07;56.89
55460;BME280;41326;45.302;-122.946;2024-03-02T07:16:34;98692.84;;;18.06;56.89
55460;BME280;41326;45.302;-122.946;2024-03-02T07:19:04;98692.30;;;18.01;56.98
55460;BME280;41326;45.302;-122.946;2024-03-02T07:21:34;98701.28;;;17.95;57.09
55460;BME280;41326;45.302;-122.946;2024-03-02T07:24:05;98709.65;;;17.92;57.10
55460;BME280;41326;45.302;-122.946;2024-03-02T07:26:35;98715.21;;;17.92;56.99
55460;BME280;41326;45.302;-122.946;2024-03-02T07:29:05;98719.00;;;17.90;56.94
55460;BME280;41326;45.302;-122.946;2024-03-02T07:31:35;98723.35;;;17.90;56.99
55460;BME280;41326;45.302;-122.946;2024-03-02T07:34:06;98721.95;;;17.88;57.07
55460;BME280;41326;45.302;-122.946;2024-03-02T07:36:36;98727.26;;;17.85;57.13
55460;BME280;41326;45.302;-122.946;2024-03-02T07:39:06;98728.61;;;17.84;57.14
55460;BME280;41326;45.302;-122.946;2024-03-02T07:41:36;98738.75;;;17.79;57.30
55460;BME280;41326;45.302;-122.946;2024-03-02T07:44:07;98739.75;;;17.80;57.20
55460;BME280;41326;45.302;-122.946;2024-03-02T07:46:37;98740.61;;;17.80;57.06
55460;BME280;41326;45.302;-122.946;2024-03-02T07:49:08;98740.67;;;17.78;57.08
55460;BME280;41326;45.302;-122.946;2024-03-02T07:51:38;98737.23;;;17.77;57.17
55460;BME280;41326;45.302;-122.946;2024-03-02T07:54:08;98737.11;;;17.79;57.07
55460;BME280;41326;45.302;-122.946;2024-03-02T07:56:38;98743.46;;;17.79;57.05
55460;BME280;41326;45.302;-122.946;2024-03-02T07:59:09;98742.53;;;17.73;57.16
55460;BME280;41326;45.302;-122.946;2024-03-02T08:01:39;98740.58;;;17.69;57.27
55460;BME280;41326;45.302;-122.946;2024-03-02T08:04:09;98745.11;;;17.68;57.18
55460;BME280;41326;45.302;-122.946;2024-03-02T08:06:39;98745.16;;;17.67;57.13
55460;BME280;41326;45.302;-122.946;2024-03-02T08:09:09;98752.13;;;17.63;57.21
55460;BME280;41326;45.302;-122.946;2024-03-02T08:11:39;98745.10;;;17.59;57.35
55460;BME280;41326;45.302;-122.946;2024-03-02T08:14:10;98734.48;;;17.58;57.41
55460;BME280;41326;45.302;-122.946;2024-03-02T08:16:40;98733.91;;;17.54;57.54
55460;BME280;41326;45.302;-122.946;2024-03-02T08:19:10;98742.51;;;17.51;57.63
55460;BME280;41326;45.302;-122.946;2024-03-02T08:21:40;98748.19;;;17.51;57.66
55460;BME280;41326;45.302;-122.946;2024-03-02T08:24:10;98754.95;;;17.49;57.63
55460;BME280;41326;45.302;-122.946;2024-03-02T08:26:40;98764.91;;;17.47;57.52
55460;BME280;41326;45.302;-122.946;2024-03-02T08:29:10;98769.24;;;17.47;57.48
55460;BME280;41326;45.302;-122.946;2024-03-02T08:31:41;98770.28;;;17.46;57.54
55460;BME280;41326;45.302;-122.946;2024-03-02T08:34:11;98772.24;;;17.44;57.65
55460;BME280;41326;45.302;-122.946;2024-03-02T08:36:41;98768.94;;;17.43;57.69
55460;BME280;41326;45.302;-122.946;2024-03-02T08:39:12;98769.43;;;17.42;57.70
55460;BME280;41326;45.302;-122.946;2024-03-02T08:41:43;98767.19;;;17.38;57.82
55460;BME280;41326;45.302;-122.946;2024-03-02T08:44:12;98774.73;;;17.37;57.77
55460;BME280;41326;45.302;-122.946;2024-03-02T08:46:42;98781.56;;;17.35;57.68
55460;BME280;41326;45.302;-122.946;2024-03-02T08:49:13;98784.10;;;17.35;57.62
55460;BME280;41326;45.302;-122.946;2024-03-02T08:51:42;98788.17;;;17.39;57.50
55460;BME280;41326;45.302;-122.946;2024-03-02T08:54:13;98782.28;;;17.38;57.52
55460;BME280;41326;45.302;-122.946;2024-03-02T08:56:43;98785.11;;;17.38;57.58
55460;BME280;41326;45.302;-122.946;2024-03-02T08:59:13;98786.34;;;17.39;57.57
55460;BME280;41326;45.302;-122.946;2024-03-02T09:01:43;98787.54;;;17.35;57.65
55460;BME280;41326;45.302;-122.946;2024-03-02T09:04:13;98784.67;;;17.34;57.68
55460;BME280;41326;45.302;-122.946;2024-03-02T09:06:43;98779.77;;;17.36;57.56
55460;BME280;41326;45.302;-122.946;2024-03-02T09:09:14;98781.58;;;17.35;57.60
55460;BME280;41326;45.302;-122.946;2024-03-02T09:11:44;98784.31;;;17.34;57.72
55460;BME280;41326;45.302;-122.946;2024-03-02T09:14:14;98786.07;;;17.34;57.82
55460;BME280;41326;45.302;-122.946;2024-03-02T09:16:44;98776.59;;;17.34;57.85
55460;BME280;41326;45.302;-122.946;2024-03-02T09:19:14;98775.24;;;17.32;57.82
55460;BME280;41326;45.302;-122.946;2024-03-02T09:21:44;98787.82;;;17.30;57.90
55460;BME280;41326;45.302;-122.946;2024-03-02T09:24:14;98794.07;;;17.32;57.83
55460;BME280;41326;45.302;-122.946;2024-03-02T09:26:44;98797.61;;;17.32;57.67
55460;BME280;41326;45.302;-122.946;2024-03-02T09:29:14;98806.29;;;17.32;57.65
55460;BME280;41326;45.302;-122.946;2024-03-02T09:31:44;98811.53;;;17.31;57.74
55460;BME280;41326;45.302;-122.946;2024-03-02T09:34:15;98820.09;;;17.29;57.80
55460;BME280;41326;45.302;-122.946;2024-03-02T09:36:45;98821.63;;;17.30;57.80
55460;BME280;41326;45.302;-122.946;2024-03-02T09:39:15;98822.70;;;17.26;57.91
55460;BME280;41326;45.302;-122.946;2024-03-02T09:41:45;98822.84;;;17.25;57.91
55460;BME280;41326;45.302;-122.946;2024-03-02T09:44:15;98823.75;;;17.25;57.85
55460;BME280;41326;45.302;-122.946;2024-03-02T09:46:49;98824.27;;;17.27;57.66
55460;BME280;41326;45.302;-122.946;2024-03-02T09:49:16;98819.06;;;17.27;57.57
55460;BME280;41326;45.302;-122.946;2024-03-02T09:51:47;98820.92;;;17.26;57.60
55460;BME280;41326;45.302;-122.946;2024-03-02T09:54:16;98821.52;;;17.28;57.58
55460;BME280;41326;45.302;-122.946;2024-03-02T09:56:45;98823.16;;;17.25;57.72
55460;BME280;41326;45.302;-122.946;2024-03-02T09:59:15;98830.68;;;17.24;57.72
55460;BME280;41326;45.302;-122.946;2024-03-02T10:04:16;98832.78;;;17.21;57.71
55460;BME280;41326;45.302;-122.946;2024-03-02T10:06:46;98832.06;;;17.21;57.59
55460;BME280;41326;45.302;-122.946;2024-03-02T10:09:27;98834.74;;;17.20;57.55
55460;BME280;41326;45.302;-122.946;2024-03-02T10:11:46;98835.02;;;17.16;57.70
55460;BME280;41326;45.302;-122.946;2024-03-02T10:14:16;98835.14;;;17.17;57.69
55460;BME280;41326;45.302;-122.946;2024-03-02T10:16:46;98838.36;;;17.14;57.80
55460;BME280;41326;45.302;-122.946;2024-03-02T10:19:17;98835.43;;;17.11;57.90
55460;BME280;41326;45.302;-122.946;2024-03-02T10:21:47;98835.48;;;17.10;57.96
55460;BME280;41326;45.302;-122.946;2024-03-02T10:24:16;98831.44;;;17.09;57.93
55460;BME280;41326;45.302;-122.946;2024-03-02T10:26:47;98830.60;;;17.07;57.91
55460;BME280;41326;45.302;-122.946;2024-03-02T10:29:16;98830.58;;;17.07;57.86
55460;BME280;41326;45.302;-122.946;2024-03-02T10:31:47;98824.50;;;17.05;57.91
55460;BME280;41326;45.302;-122.946;2024-03-02T10:34:16;98821.95;;;17.03;58.02
55460;BME280;41326;45.302;-122.946;2024-03-02T10:36:47;98818.06;;;17.01;58.07
55460;BME280;41326;45.302;-122.946;2024-03-02T10:39:17;98815.71;;;16.99;58.10
55460;BME280;41326;45.302;-122.946;2024-03-02T10:41:49;98811.31;;;16.99;58.09
55460;BME280;41326;45.302;-122.946;2024-03-02T10:44:17;98815.82;;;17.00;58.01
55460;BME280;41326;45.302;-122.946;2024-03-02T10:46:49;98823.33;;;17.02;57.85
55460;BME280;41326;45.302;-122.946;2024-03-02T10:49:18;98832.81;;;17.04;57.74
55460;BME280;41326;45.302;-122.946;2024-03-02T10:51:47;98834.26;;;17.04;57.67
55460;BME280;41326;45.302;-122.946;2024-03-02T10:54:17;98834.45;;;17.07;57.60
55460;BME280;41326;45.302;-122.946;2024-03-02T10:56:47;98833.26;;;17.04;57.65
55460;BME280;41326;45.302;-122.946;2024-03-02T10:59:24;98831.89;;;16.99;57.78
55460;BME280;41326;45.302;-122.946;2024-03-02T11:01:48;98832.45;;;16.97;57.79
55460;BME280;41326;45.302;-122.946;2024-03-02T11:04:19;98838.31;;;16.95;57.85
55460;BME280;41326;45.302;-122.946;2024-03-02T11:06:50;98843.13;;;16.93;57.79
55460;BME280;41326;45.302;-122.946;2024-03-02T11:09:21;98848.91;;;16.91;57.80
55460;BME280;41326;45.302;-122.946;2024-03-02T11:11:55;98850.78;;;16.86;58.00
55460;BME280;41326;45.302;-122.946;2024-03-02T11:14:23;98859.39;;;16.84;58.09
55460;BME280;41326;45.302;-122.946;2024-03-02T11:16:48;98863.33;;;16.84;58.04
55460;BME280;41326;45.302;-122.946;2024-03-02T11:19:19;98864.34;;;16.80;58.14
55460;BME280;41326;45.302;-122.946;2024-03-02T11:21:49;98866.15;;;16.77;58.16
55460;BME280;41326;45.302;-122.946;2024-03-02T11:24:30;98868.48;;;16.78;58.05
55460;BME280;41326;45.302;-122.946;2024-03-02T11:26:49;98871.83;;;16.76;58.03
55460;BME280;41326;45.302;-122.946;2024-03-02T11:34:28;98877.16;;;16.68;58.34
55460;BME280;41326;45.302;-122.946;2024-03-02T11:36:49;98884.67;;;16.65;58.40
55460;BME280;41326;45.302;-122.946;2024-03-02T11:39:19;98878.49;;;16.64;58.43
55460;BME280;41326;45.302;-122.946;2024-03-02T11:41:49;98882.76;;;16.62;58.46
55460;BME280;41326;45.302;-122.946;2024-03-02T11:44:19;98888.56;;;16.62;58.43
55460;BME280;41326;45.302;-122.946;2024-03-02T11:46:53;98887.69;;;16.65;58.27
55460;BME280;41326;45.302;-122.946;2024-03-02T11:52:00;98890.89;;;16.62;58.34
55460;BME280;41326;45.302;-122.946;2024-03-02T11:54:20;98892.39;;;16.64;58.30
55460;BME280;41326;45.302;-122.946;2024-03-02T11:56:50;98895.41;;;16.63;58.29
55460;BME280;41326;45.302;-122.946;2024-03-02T11:59:20;98901.00;;;16.58;58.45
55460;BME280;41326;45.302;-122.946;2024-03-02T12:01:50;98904.83;;;16.54;58.54
55460;BME280;41326;45.302;-122.946;2024-03-02T12:04:20;98908.43;;;16.55;58.46
55460;BME280;41326;45.302;-122.946;2024-03-02T12:06:55;98912.63;;;16.54;58.39
55460;BME280;41326;45.302;-122.946;2024-03-02T12:09:21;98919.45;;;16.53;58.37
55460;BME280;41326;45.302;-122.946;2024-03-02T12:14:20;98935.64;;;16.47;58.56
55460;BME280;41326;45.302;-122.946;2024-03-02T12:16:50;98944.51;;;16.47;58.56
55460;BME280;41326;45.302;-122.946;2024-03-02T12:19:20;98950.79;;;16.41;58.76
55460;BME280;41326;45.302;-122.946;2024-03-02T12:21:51;98954.16;;;16.35;58.92
55460;BME280;41326;45.302;-122.946;2024-03-02T12:24:22;98955.94;;;16.36;58.82
55460;BME280;41326;45.302;-122.946;2024-03-02T12:26:51;98964.79;;;16.37;58.68
55460;BME280;41326;45.302;-122.946;2024-03-02T12:29:21;98965.78;;;16.36;58.66
55460;BME280;41326;45.302;-122.946;2024-03-02T12:31:52;98972.38;;;16.33;58.80
55460;BME280;41326;45.302;-122.946;2024-03-02T12:34:22;98975.29;;;16.32;58.80
55460;BME280;41326;45.302;-122.946;2024-03-02T12:36:51;98980.54;;;16.31;58.83
55460;BME280;41326;45.302;-122.946;2024-03-02T12:39:21;98980.18;;;16.28;58.91
55460;BME280;41326;45.302;-122.946;2024-03-02T12:41:52;98985.58;;;16.24;59.05
55460;BME280;41326;45.302;-122.946;2024-03-02T12:44:21;98986.90;;;16.24;59.05
55460;BME280;41326;45.302;-122.946;2024-03-02T12:46:51;98994.36;;;16.24;58.95
55460;BME280;41326;45.302;-122.946;2024-03-02T12:49:23;98996.11;;;16.24;58.92
55460;BME280;41326;45.302;-122.946;2024-03-02T12:51:52;98998.37;;;16.25;58.98
55460;BME280;41326;45.302;-122.946;2024-03-02T12:54:23;98993.77;;;16.29;58.87
55460;BME280;41326;45.302;-122.946;2024-03-02T12:56:52;98996.62;;;16.28;58.87